Time;durP1;ratioP1;P1;durP2;ratioP2;P2;SDS_P1;SDS_P2;PMS_P1;PMS_P2;Temp;Humidity;BMP_temperature;BMP_pressure;BME280_temperature;BME280_humidity;BME280_pressure;Samples;Min_cycle;Max_cycle;Signal;HPM_P1;HPM_P2
2022/07/23 00:01:47;;;;;;;19.40;10.30;;;;;;;19.79;51.24;99069.70;106151;1280;25321;-88
2022/07/23 00:04:32;;;;;;;21.50;10.60;;;;;;;19.69;51.56;99071.73;105236;1286;22579;-87
2022/07/23 00:07:37;;;;;;;22.60;11.30;;;;;;;19.65;51.72;99066.72;105580;1287;22773;-87
2022/07/23 00:10:53;;;;;;;23.70;12.00;;;;;;;19.51;51.84;99059.73;104880;1290;24362;-87
2022/07/23 00:13:57;;;;;;;;;;;;;;;;;;;;;
2022/07/23 00:17:08;;;;;;;18.00;10.00;;;;;;;19.22;52.16;99058.77;105414;1290;26815;-86
2022/07/23 00:20:24;;;;;;;20.70;9.90;;;;;;;19.25;52.24;99060.09;104836;1288;22549;-88
2022/07/23 00:23:27;;;;;;;24.30;11.50;;;;;;;19.33;52.57;99066.20;104522;1290;26528;-86
2022/07/23 00:26:18;;;;;;;17.30;10.70;;;;;;;19.31;52.54;99068.80;105283;1290;22667;-87
2022/07/23 00:29:20;;;;;;;25.50;11.20;;;;;;;19.29;52.81;99074.98;104868;1290;25356;-87
2022/07/23 00:32:56;;;;;;;19.80;10.30;;;;;;;19.26;52.90;99073.02;104825;1291;25784;-87
2022/07/23 00:36:20;;;;;;;21.10;9.80;;;;;;;19.25;52.98;99075.66;104667;1293;22779;-87
2022/07/23 00:39:51;;;;;;;;;;;;;;;;;;;;;
2022/07/23 00:43:41;;;;;;;;;;;;;;;;;;;;;
2022/07/23 00:46:52;;;;;;;20.20;8.40;;;;;;;19.19;53.20;99062.86;105121;1289;24427;-88
2022/07/23 00:50:43;;;;;;;15.00;8.30;;;;;;;19.18;53.28;99068.77;105471;1285;25486;-86
2022/07/23 00:53:24;;;;;;;17.80;8.10;;;;;;;19.22;53.37;99068.48;105630;1284;25753;-86
2022/07/23 00:56:47;;;;;;;;;;;;;;;;;;;;;
2022/07/23 00:59:57;;;;;;;14.90;8.30;;;;;;;19.14;53.51;99078.51;105248;1287;25465;-87
2022/07/23 01:03:10;;;;;;;;;;;;;;;;;;;;;
2022/07/23 01:06:38;;;;;;;16.10;9.30;;;;;;;19.12;53.64;99077.83;104919;1289;24435;-86
2022/07/23 01:10:11;;;;;;;;;;;;;;;;;;;;;
2022/07/23 01:13:58;;;;;;;;;;;;;;;;;;;;;
2022/07/23 01:17:28;;;;;;;;;;;;;;;;;;;;;
2022/07/23 01:21:20;;;;;;;;;;;;;;;;;;;;;
2022/07/23 01:24:24;;;;;;;;;;;;;;;;;;;;;
2022/07/23 01:27:48;;;;;;;;;;;;;;;;;;;;;
2022/07/23 01:31:12;;;;;;;;;;;;;;;;;;;;;
2022/07/23 01:35:03;;;;;;;24.30;11.10;;;;;;;18.70;54.62;99048.23;104284;1295;22867;-86
2022/07/23 01:37:52;;;;;;;;;;;;;;;;;;;;;
2022/07/23 01:41:14;;;;;;;;;;;;;;;;;;;;;
2022/07/23 01:44:52;;;;;;;;;;;;;;;;;;;;;
2022/07/23 01:48:19;;;;;;;;;;;;;;;;;;;;;
2022/07/23 01:55:59;;;;;;;20.80;11.20;;;;;;;18.77;55.28;99030.45;104360;1295;24214;-87
2022/07/23 01:59:59;;;;;;;23.40;10.40;;;;;;;18.76;55.24;99031.39;105094;1290;22734;-88
2022/07/23 02:03:46;;;;;;;20.40;10.70;;;;;;;18.74;55.38;99036.11;104412;1297;22560;-89
2022/07/23 02:06:31;;;;;;;21.00;9.60;;;;;;;18.73;55.27;99027.94;103109;1306;25352;-87
2022/07/23 02:09:36;;;;;;;20.90;10.00;;;;;;;18.74;55.42;99025.87;103459;1306;22893;-87
2022/07/23 02:12:49;;;;;;;19.40;9.80;;;;;;;18.77;55.50;99027.58;103510;1303;22850;-86
2022/07/23 02:15:58;;;;;;;17.40;10.70;;;;;;;18.79;55.61;99023.69;103574;1303;22570;-88
2022/07/23 02:18:57;;;;;;;20.20;10.10;;;;;;;18.83;55.73;99020.73;103755;1303;24309;-87
2022/07/23 02:21:48;;;;;;;20.00;10.40;;;;;;;18.81;55.69;99018.63;103636;1303;25385;-86
2022/07/23 02:24:53;;;;;;;18.60;10.60;;;;;;;18.74;55.73;99013.46;103726;1300;22573;-89
2022/07/23 02:27:55;;;;;;;17.00;10.50;;;;;;;18.68;55.86;99011.39;104098;1300;24411;-88
2022/07/23 02:30:51;;;;;;;20.80;9.80;;;;;;;18.58;55.89;99002.95;104108;1297;22739;-86
2022/07/23 02:34:18;;;;;;;;;;;;;;;;;;;;;
2022/07/23 02:37:02;;;;;;;17.20;9.00;;;;;;;18.48;56.11;99002.44;103827;1299;25371;-87
2022/07/23 02:39:53;;;;;;;19.30;9.30;;;;;;;18.47;56.14;99006.50;104261;1290;22747;-86
2022/07/23 02:42:45;;;;;;;17.80;10.00;;;;;;;18.48;56.27;99006.09;105254;1277;25304;-87
2022/07/23 02:45:46;;;;;;;17.90;9.50;;;;;;;18.46;56.35;99014.00;106074;1277;24212;-86
2022/07/23 02:49:07;;;;;;;;;;;;;;;;;;;;;
2022/07/23 02:52:16;;;;;;;15.50;9.10;;;;;;;18.47;56.42;99008.15;105885;1277;23151;-87
2022/07/23 02:55:17;;;;;;;;;;;;;;;;;;;;;
2022/07/23 02:58:24;;;;;;;17.50;9.80;;;;;;;18.34;56.60;99007.54;106227;1277;25670;-85
2022/07/23 03:01:10;;;;;;;14.60;8.50;;;;;;;18.29;56.66;99004.98;105854;1278;22708;-85
2022/07/23 03:04:11;;;;;;;;;;;;;;;;;;;;;
2022/07/23 03:07:43;;;;;;;13.70;8.10;;;;;;;18.33;56.81;99006.23;106117;1277;22691;-87
2022/07/23 03:10:59;;;;;;;13.50;8.20;;;;;;;18.39;56.86;99005.61;106063;1277;24537;-86
2022/07/23 03:14:24;;;;;;;15.60;9.40;;;;;;;18.41;57.00;99010.28;106089;1277;22634;-85
2022/07/23 03:17:30;;;;;;;15.80;9.40;;;;;;;18.40;57.05;99005.27;106367;1277;25362;-86
2022/07/23 03:20:06;;;;;;;16.30;9.30;;;;;;;18.41;57.16;99004.50;106129;1277;22539;-86
2022/07/23 03:23:03;;;;;;;16.10;9.10;;;;;;;18.38;57.21;99003.90;105896;1277;22722;-86
2022/07/23 03:25:56;;;;;;;17.50;10.00;;;;;;;18.33;57.07;99007.77;106190;1276;22588;-84
2022/07/23 03:29:05;;;;;;;13.70;8.80;;;;;;;18.25;57.21;99005.46;106198;1276;24370;-86
2022/07/23 03:32:10;;;;;;;;;;;;;;;;;;;;;
2022/07/23 03:35:05;;;;;;;;;;;;;;;;;;;;;
2022/07/23 03:37:58;;;;;;;16.50;9.20;;;;;;;18.08;57.50;99004.52;105946;1276;25323;-85
2022/07/23 03:41:23;;;;;;;;;;;;;;;;;;;;;
2022/07/23 03:45:11;;;;;;;15.60;9.20;;;;;;;18.21;57.69;99007.33;106423;1277;22556;-86
2022/07/23 03:47:47;;;;;;;16.70;9.40;;;;;;;18.14;57.69;99004.99;105855;1278;22541;-84
2022/07/23 03:50:42;;;;;;;;;;;;;;;;;;;;;
2022/07/23 03:53:33;;;;;;;19.40;9.20;;;;;;;18.19;57.84;99001.54;106121;1277;23052;-85
2022/07/23 03:56:27;;;;;;;20.10;8.90;;;;;;;18.28;57.87;98995.23;106428;1277;23924;-84
2022/07/23 03:59:19;;;;;;;;;;;;;;;;;;;;;
2022/07/23 04:02:35;;;;;;;18.70;8.70;;;;;;;18.51;58.04;98998.70;106062;1276;22555;-86
2022/07/23 04:05:57;;;;;;;;;;;;;;;;;;;;;
2022/07/23 04:08:59;;;;;;;;;;;;;;;;;;;;;
2022/07/23 04:12:25;;;;;;;18.30;9.00;;;;;;;18.83;58.06;98996.89;105964;1277;22563;-84
2022/07/23 04:15:37;;;;;;;;;;;;;;;;;;;;;
2022/07/23 04:19:04;;;;;;;19.40;9.10;;;;;;;18.98;58.07;98985.92;105738;1277;22501;-84
2022/07/23 04:22:08;;;;;;;19.30;9.30;;;;;;;19.07;58.38;98980.20;105888;1284;24147;-87
2022/07/23 04:24:49;;;;;;;16.10;9.30;;;;;;;19.17;58.36;98977.71;105508;1284;23268;-85
2022/07/23 04:27:19;;;;;;;16.20;9.10;;;;;;;19.26;58.22;98968.05;105200;1284;22593;-86
2022/07/23 04:30:22;;;;;;;18.00;8.90;;;;;;;19.35;58.29;98967.84;105737;1285;25403;-85
2022/07/23 04:33:25;;;;;;;16.10;9.60;;;;;;;19.45;58.49;98969.75;105265;1285;24366;-84
2022/07/23 04:36:38;;;;;;;19.10;9.40;;;;;;;19.51;58.37;98969.27;105280;1285;24425;-85
2022/07/23 04:39:39;;;;;;;;;;;;;;;;;;;;;
2022/07/23 04:43:02;;;;;;;18.40;8.90;;;;;;;19.65;58.39;98946.41;105531;1284;25360;-85
2022/07/23 04:46:10;;;;;;;17.90;9.60;;;;;;;19.73;58.53;98941.38;105872;1284;22551;-86
2022/07/23 04:49:38;;;;;;;21.30;9.40;;;;;;;19.81;58.60;98938.11;105513;1284;22557;-85
2022/07/23 04:52:51;;;;;;;;;;;;;;;;;;;;;
2022/07/23 04:56:15;;;;;;;;;;;;;;;;;;;;;
2022/07/23 04:59:39;;;;;;;;;;;;;;;;;;;;;
2022/07/23 05:03:53;;;;;;;18.60;9.30;;;;;;;20.30;58.54;98917.10;105469;1284;22846;-86
2022/07/23 05:07:24;;;;;;;20.20;10.20;;;;;;;20.37;58.44;98910.29;104231;1297;22884;-85
2022/07/23 05:10:08;;;;;;;21.30;11.10;;;;;;;20.45;58.61;98903.17;103008;1312;545661;-86
2022/07/23 05:12:42;;;;;;;18.20;10.20;;;;;;;20.47;58.38;98903.92;106469;1275;22535;-87
2022/07/23 05:15:17;;;;;;;16.90;10.20;;;;;;;20.49;58.43;98908.40;106433;1274;22547;-86
2022/07/23 05:17:48;;;;;;;20.30;11.60;;;;;;;20.51;58.45;98904.52;106464;1274;25312;-85
2022/07/23 05:20:41;;;;;;;17.70;10.80;;;;;;;20.54;58.51;98905.79;106154;1277;22534;-89
2022/07/23 05:23:22;;;;;;;17.60;10.80;;;;;;;20.61;58.44;98899.96;104399;1271;2453025;-87
2022/07/23 05:25:59;;;;;;;16.50;9.90;;;;;;;20.71;58.65;98899.48;106346;1274;24433;-85
2022/07/23 05:28:39;;;;;;;17.90;10.00;;;;;;;20.81;58.43;98892.50;106402;1273;22522;-86
2022/07/23 05:31:44;;;;;;;18.10;10.00;;;;;;;20.91;58.40;98895.12;106188;1271;24362;-86
2022/07/23 05:34:26;;;;;;;14.60;9.30;;;;;;;21.01;58.36;98897.15;106660;1271;22531;-85
2022/07/23 05:37:00;;;;;;;15.90;9.50;;;;;;;21.08;58.36;98895.84;106644;1272;25574;-87
2022/07/23 05:39:35;;;;;;;16.70;9.90;;;;;;;21.12;58.30;98894.11;106227;1275;23596;-85
2022/07/23 05:42:21;;;;;;;14.90;9.40;;;;;;;21.17;58.29;98892.45;106261;1274;22531;-85
2022/07/23 05:45:07;;;;;;;15.20;9.10;;;;;;;21.21;58.34;98889.96;106287;1271;26455;-84
2022/07/23 05:47:54;;;;;;;15.40;9.80;;;;;;;21.24;58.34;98889.55;106444;1274;22562;-85
2022/07/23 05:50:41;;;;;;;16.10;9.70;;;;;;;21.28;58.37;98883.30;106558;1271;22580;-86
2022/07/23 05:53:29;;;;;;;16.00;10.70;;;;;;;21.35;58.32;98882.55;106430;1274;22533;-87
2022/07/23 05:56:17;;;;;;;20.70;12.50;;;;;;;21.46;58.28;98882.95;106650;1271;24197;-86
2022/07/23 05:59:00;;;;;;;22.80;13.70;;;;;;;21.63;58.24;98887.30;106335;1271;22554;-86
2022/07/23 06:01:42;;;;;;;20.30;12.30;;;;;;;21.77;58.19;98886.45;106538;1271;22591;-87
2022/07/23 06:04:39;;;;;;;17.30;11.40;;;;;;;21.88;58.16;98883.88;106317;1271;22564;-85
2022/07/23 06:07:55;;;;;;;15.10;10.20;;;;;;;22.07;58.40;98878.67;106400;1271;24016;-86
2022/07/23 06:10:34;;;;;;;17.40;10.00;;;;;;;22.23;58.34;98881.02;106287;1274;22531;-86
2022/07/23 06:13:14;;;;;;;15.50;9.40;;;;;;;22.40;58.18;98881.45;106207;1272;25461;-86
2022/07/23 06:15:52;;;;;;;17.60;9.30;;;;;;;22.59;58.09;98879.70;106329;1271;24073;-87
2022/07/23 06:18:36;;;;;;;14.40;9.30;;;;;;;22.67;57.96;98878.27;107026;1271;22533;-88
2022/07/23 06:21:36;;;;;;;13.60;9.20;;;;;;;22.70;58.00;98872.06;106436;1272;24163;-87
2022/07/23 06:24:14;;;;;;;18.30;10.50;;;;;;;22.72;58.05;98864.23;106782;1271;24195;-87
2022/07/23 06:27:18;;;;;;;14.90;9.60;;;;;;;22.72;58.00;98862.38;106332;1271;22538;-87
2022/07/23 06:29:57;;;;;;;14.70;9.90;;;;;;;22.73;58.02;98860.45;106264;1274;25249;-85
2022/07/23 06:32:35;;;;;;;15.60;10.40;;;;;;;22.77;57.93;98861.04;106656;1274;25465;-87
2022/07/23 06:35:33;;;;;;;13.10;9.80;;;;;;;22.81;58.04;98859.45;106254;1274;22611;-86
2022/07/23 06:38:31;;;;;;;18.90;9.50;;;;;;;22.85;58.07;98855.31;106281;1274;25408;-88
2022/07/23 06:41:37;;;;;;;13.80;9.20;;;;;;;22.90;57.84;98854.92;106747;1271;22531;-89
2022/07/23 06:44:23;;;;;;;15.70;9.00;;;;;;;22.92;58.06;98855.08;106468;1274;23900;-86
2022/07/23 06:47:00;;;;;;;14.50;9.00;;;;;;;22.96;57.79;98852.30;106576;1271;23896;-89
2022/07/23 06:49:36;;;;;;;15.80;9.40;;;;;;;23.00;57.75;98847.44;106291;1274;22584;-86
2022/07/23 06:52:23;;;;;;;15.10;9.40;;;;;;;23.13;58.11;98847.42;106429;1271;22528;-87
2022/07/23 06:55:03;;;;;;;13.80;8.80;;;;;;;23.41;58.20;98846.36;106764;1271;25510;-87
2022/07/23 06:57:55;;;;;;;13.80;8.20;;;;;;;23.67;57.60;98847.50;106381;1271;25590;-87
2022/07/23 07:00:51;;;;;;;15.10;8.20;;;;;;;23.80;57.54;98840.59;106437;1271;24188;-87
2022/07/23 07:03:27;;;;;;;13.60;9.20;;;;;;;23.93;57.64;98841.04;106324;1271;22540;-88
2022/07/23 07:06:20;;;;;;;15.70;9.60;;;;;;;24.02;57.52;98841.58;106532;1271;25337;-89
2022/07/23 07:09:22;;;;;;;13.70;8.60;;;;;;;24.22;57.49;98840.80;106183;1274;24263;-88
2022/07/23 07:12:13;;;;;;;;;;;;;;;;;;;;;
2022/07/23 07:14:57;;;;;;;14.60;9.00;;;;;;;24.99;57.48;98837.23;106732;1274;24227;-86
2022/07/23 07:17:50;;;;;;;;;;;;;;;;;;;;;
2022/07/23 07:20:31;;;;;;;12.90;8.20;;;;;;;25.57;57.08;98822.66;107060;1271;22552;-87
2022/07/23 07:23:11;;;;;;;13.30;8.60;;;;;;;25.74;56.73;98815.66;106811;1271;25349;-87
2022/07/23 07:25:53;;;;;;;14.80;8.90;;;;;;;25.80;56.60;98814.05;106625;1271;23330;-87
2022/07/23 07:28:37;;;;;;;13.60;8.90;;;;;;;25.83;56.39;98816.77;106772;1271;22519;-87
2022/07/23 07:31:16;;;;;;;14.00;9.00;;;;;;;25.82;56.39;98816.66;106225;1271;26562;-87
2022/07/23 07:34:22;;;;;;;12.90;8.70;;;;;;;25.84;56.47;98816.95;106224;1272;22692;-88
2022/07/23 07:37:00;;;;;;;15.40;9.00;;;;;;;25.86;56.39;98818.13;106386;1271;25385;-88
2022/07/23 07:40:57;;;;;;;12.50;8.10;;;;;;;25.91;56.59;98817.27;106268;1272;25543;-87
2022/07/23 07:44:03;;;;;;;15.00;9.00;;;;;;;26.01;56.33;98812.30;107025;1271;22471;-88
2022/07/23 07:46:52;;;;;;;13.20;8.20;;;;;;;26.00;56.17;98815.42;106429;1272;25445;-88
2022/07/23 07:49:40;;;;;;;12.50;8.30;;;;;;;26.03;56.15;98816.06;106410;1274;22714;-90
2022/07/23 07:52:28;;;;;;;13.60;8.30;;;;;;;26.09;56.24;98812.91;106325;1274;24111;-89
2022/07/23 07:55:42;;;;;;;11.90;8.30;;;;;;;26.20;56.25;98817.46;106325;1275;22586;-91
2022/07/23 07:59:01;;;;;;;14.10;8.70;;;;;;;26.30;56.47;98819.45;106109;1274;22571;-88
2022/07/23 08:01:53;;;;;;;12.30;7.80;;;;;;;26.47;56.18;98820.70;106346;1274;23002;-89
2022/07/23 08:04:48;;;;;;;13.90;8.20;;;;;;;26.57;55.84;98816.80;106188;1274;25433;-88
2022/07/23 08:07:39;;;;;;;;;;;;;;;;;;;;;
2022/07/23 08:10:53;;;;;;;14.50;7.90;;;;;;;26.50;55.82;98800.12;106345;1274;22690;-89
2022/07/23 08:13:49;;;;;;;;;;;;;;;;;;;;;
2022/07/23 08:16:56;;;;;;;;;;;;;;;;;;;;;
2022/07/23 08:20:19;;;;;;;;;;;;;;;;;;;;;
2022/07/23 08:24:14;;;;;;;13.10;7.80;;;;;;;26.75;56.03;98811.42;106215;1274;22636;-88
2022/07/23 08:27:13;;;;;;;;;;;;;;;;;;;;;
2022/07/23 08:30:36;;;;;;;11.40;7.80;;;;;;;26.86;55.76;98811.84;106258;1274;25597;-87
2022/07/23 08:33:56;;;;;;;12.80;7.60;;;;;;;26.85;55.59;98815.41;106282;1274;22552;-88
2022/07/23 08:37:05;;;;;;;14.20;7.40;;;;;;;26.80;55.58;98819.63;106107;1274;24309;-88
2022/07/23 08:40:30;;;;;;;;;;;;;;;;;;;;;
2022/07/23 08:44:00;;;;;;;;;;;;;;;;;;;;;
2022/07/23 08:47:05;;;;;;;;;;;;;;;;;;;;;
2022/07/23 08:50:24;;;;;;;15.40;7.60;;;;;;;26.71;55.99;98824.77;105738;1280;24137;-87
2022/07/23 08:53:40;;;;;;;13.00;7.80;;;;;;;26.78;55.96;98817.77;105742;1280;22560;-88
2022/07/23 08:56:41;;;;;;;;;;;;;;;;;;;;;
2022/07/23 09:00:07;;;;;;;;;;;;;;;;;;;;;
2022/07/23 09:03:55;;;;;;;;;;;;;;;;;;;;;
2022/07/23 09:07:05;;;;;;;12.50;8.20;;;;;;;26.90;55.06;98833.00;104932;1287;22593;-87
2022/07/23 09:09:48;;;;;;;;;;;;;;;;;;;;;
2022/07/23 09:12:53;;;;;;;18.30;8.70;;;;;;;27.07;55.77;98826.95;105040;1287;22767;-87
2022/07/23 09:16:34;;;;;;;22.50;9.00;;;;;;;27.14;55.55;98826.90;104996;1287;25402;-87
2022/07/23 09:19:22;;;;;;;;;;;;;;;;;;;;;
2022/07/23 09:22:41;;;;;;;20.40;8.40;;;;;;;27.16;55.44;98823.48;104949;1290;22622;-87
2022/07/23 09:26:29;;;;;;;;;;;;;;;;;;;;;
2022/07/23 09:29:54;;;;;;;17.80;8.60;;;;;;;27.00;55.40;98837.36;103522;1303;24294;-87
2022/07/23 09:33:42;;;;;;;23.60;10.30;;;;;;;26.92;55.58;98842.63;102911;1312;545184;-88
2022/07/23 09:36:34;;;;;;;14.90;8.80;;;;;;;26.85;55.80;98845.10;105249;1286;24725;-87
2022/07/23 09:39:17;;;;;;;15.50;8.60;;;;;;;26.87;55.87;98837.61;105071;1286;24292;-88
2022/07/23 09:41:47;;;;;;;17.70;9.60;;;;;;;26.89;55.78;98833.37;105070;1287;25340;-85
2022/07/23 09:44:21;;;;;;;19.90;8.50;;;;;;;26.94;55.65;98840.55;105865;1277;25432;-87
2022/07/23 09:46:57;;;;;;;16.90;8.80;;;;;;;26.99;55.38;98844.56;105651;1274;366952;-88
2022/07/23 09:49:43;;;;;;;17.00;7.90;;;;;;;27.06;55.44;98848.17;106206;1275;25422;-88
2022/07/23 09:52:31;;;;;;;16.40;9.10;;;;;;;27.13;55.37;98845.52;106346;1277;23788;-86
2022/07/23 09:55:12;;;;;;;15.90;8.80;;;;;;;27.02;54.86;98846.03;106049;1275;25314;-86
2022/07/23 09:57:55;;;;;;;13.60;8.90;;;;;;;26.82;54.76;98872.79;106075;1277;22556;-87
2022/07/23 10:00:44;;;;;;;225.10;67.20;;;;;;;26.59;55.10;98889.98;106262;1274;22548;-85
2022/07/23 10:03:23;;;;;;;18.90;9.60;;;;;;;26.44;55.15;98895.73;106074;1276;22492;-87
2022/07/23 10:06:22;;;;;;;14.20;8.00;;;;;;;26.20;54.75;98912.83;106147;1276;22556;-87
2022/07/23 10:09:27;;;;;;;13.40;8.20;;;;;;;25.81;54.62;98923.88;106276;1276;22602;-90
2022/07/23 10:15:20;;;;;;;13.50;8.20;;;;;;;24.95;54.95;98924.84;106064;1277;22547;-89
2022/07/23 10:18:25;;;;;;;13.30;7.80;;;;;;;24.67;55.17;98920.29;105902;1277;22709;-86
2022/07/23 10:21:16;;;;;;;15.30;8.50;;;;;;;24.39;55.44;98910.09;106265;1277;25493;-88
2022/07/23 10:24:17;;;;;;;12.40;7.90;;;;;;;24.23;55.55;98906.04;105909;1277;23911;-88
2022/07/23 10:27:13;;;;;;;12.90;8.40;;;;;;;24.16;55.71;98903.52;106112;1277;22543;-89
2022/07/23 10:30:09;;;;;;;16.20;8.60;;;;;;;24.23;56.19;98903.61;105981;1277;24153;-87
2022/07/23 10:33:01;;;;;;;13.90;7.90;;;;;;;24.33;56.20;98909.08;106088;1277;22560;-88
2022/07/23 10:36:14;;;;;;;13.30;8.50;;;;;;;24.36;55.85;98909.75;106092;1277;24236;-87
2022/07/23 10:39:14;;;;;;;14.80;8.20;;;;;;;24.40;56.08;98904.86;105831;1276;22558;-88
2022/07/23 10:42:30;;;;;;;;;;;;;;;;;;;;;
2022/07/23 10:46:02;;;;;;;15.10;9.10;;;;;;;24.47;55.83;98912.36;105471;1282;22542;-87
2022/07/23 10:48:36;;;;;;;15.40;8.70;;;;;;;24.51;56.09;98905.00;105484;1282;25491;-87
2022/07/23 10:51:40;;;;;;;14.50;8.60;;;;;;;24.57;56.24;98901.77;105723;1283;26598;-88
2022/07/23 10:54:22;;;;;;;16.70;8.90;;;;;;;24.58;56.11;98897.70;105380;1282;25616;-90
2022/07/23 10:57:24;;;;;;;12.60;8.10;;;;;;;24.60;55.97;98898.30;105397;1282;22671;-90
2022/07/23 11:00:36;;;;;;;;;;;;;;;;;;;;;
2022/07/23 11:03:35;;;;;;;14.20;7.90;;;;;;;24.66;55.69;98907.60;105198;1283;22570;-87
2022/07/23 11:06:15;;;;;;;15.30;9.10;;;;;;;24.69;55.90;98902.71;105195;1282;22993;-87
2022/07/23 11:08:46;;;;;;;13.20;9.20;;;;;;;24.75;55.98;98906.26;105606;1283;24418;-87
2022/07/23 11:11:45;;;;;;;16.60;9.00;;;;;;;24.83;56.07;98901.02;105241;1283;22607;-87
2022/07/23 11:14:56;;;;;;;15.00;9.10;;;;;;;24.95;56.43;98901.27;105290;1282;22577;-87
2022/07/23 11:17:31;;;;;;;14.40;9.00;;;;;;;25.13;56.38;98902.59;105319;1282;23930;-87
2022/07/23 11:20:58;;;;;;;13.70;8.30;;;;;;;25.28;56.37;98903.49;105741;1278;25482;-88
2022/07/23 11:25:03;;;;;;;12.90;8.30;;;;;;;25.51;56.47;98897.95;105872;1276;24239;-89
2022/07/23 11:27:43;;;;;;;12.30;8.80;;;;;;;25.82;56.42;98890.73;106067;1276;25291;-86
2022/07/23 11:31:00;;;;;;;46.40;33.90;;;;;;;26.14;56.52;98892.59;105806;1277;25436;-88
2022/07/23 11:34:37;;;;;;;20.40;11.30;;;;;;;26.60;56.11;98899.12;105835;1277;22588;-86
2022/07/23 11:37:43;;;;;;;19.20;9.80;;;;;;;26.80;55.22;98900.38;105167;1286;22589;-88
2022/07/23 11:40:26;;;;;;;14.20;9.10;;;;;;;26.96;55.26;98891.80;105296;1285;22673;-90
2022/07/23 11:43:08;;;;;;;12.80;8.80;;;;;;;27.26;55.39;98883.63;105174;1285;23920;-90
2022/07/23 11:45:51;;;;;;;13.90;9.50;;;;;;;27.58;54.89;98890.63;105073;1285;22577;-89
2022/07/23 11:48:50;;;;;;;14.20;9.00;;;;;;;27.87;54.88;98879.92;105460;1286;24349;-89
2022/07/23 11:51:50;;;;;;;12.70;8.80;;;;;;;28.20;54.55;98875.90;105168;1285;25521;-92
2022/07/23 11:54:35;;;;;;;11.90;8.30;;;;;;;28.25;53.92;98875.79;105149;1285;22721;-88
2022/07/23 11:57:06;;;;;;;14.90;8.90;;;;;;;28.07;53.95;98884.01;104986;1286;24198;-87
2022/07/23 12:00:10;;;;;;;13.00;9.00;;;;;;;28.08;53.98;98880.85;105266;1285;22589;-90
2022/07/23 12:02:53;;;;;;;11.80;8.10;;;;;;;28.31;54.06;98872.90;105320;1285;22790;-91
2022/07/23 12:05:47;;;;;;;12.60;8.40;;;;;;;28.59;53.94;98871.46;105300;1286;25504;-91
2022/07/23 12:08:35;;;;;;;13.50;8.00;;;;;;;28.87;53.85;98867.63;105088;1286;22724;-87
2022/07/23 12:11:21;;;;;;;11.60;7.40;;;;;;;29.00;53.41;98862.73;105419;1281;25524;-88
2022/07/23 12:14:10;;;;;;;13.20;7.30;;;;;;;29.05;52.85;98859.94;106159;1274;24252;-90
2022/07/23 12:17:10;;;;;;;11.70;7.50;;;;;;;29.03;52.62;98860.79;106168;1274;22828;-88
2022/07/23 12:20:02;;;;;;;11.40;7.70;;;;;;;29.02;52.53;98865.42;106224;1274;25202;-86
2022/07/23 12:22:53;;;;;;;10.20;7.30;;;;;;;28.91;52.28;98862.20;106099;1274;23951;-86
2022/07/23 12:25:35;;;;;;;18.10;7.60;;;;;;;28.94;52.11;98858.67;106171;1274;22563;-88
2022/07/23 12:28:42;;;;;;;10.50;7.10;;;;;;;28.95;51.67;98855.40;105817;1276;22535;-86
2022/07/23 12:32:12;;;;;;;;;;;;;;;;;;;;;
2022/07/23 12:35:42;;;;;;;11.20;7.10;;;;;;;29.04;51.85;98843.41;106504;1273;22558;-88
2022/07/23 12:39:11;;;;;;;11.70;6.80;;;;;;;28.96;51.48;98841.16;106385;1273;23963;-86
2022/07/23 12:42:35;;;;;;;10.00;6.50;;;;;;;29.14;51.48;98843.40;106340;1273;22724;-88
2022/07/23 12:46:19;;;;;;;;;;;;;;;;;;;;;
2022/07/23 12:53:54;;;;;;;9.30;6.60;;;;;;;29.22;50.62;98848.63;104745;1294;24267;-87
2022/07/23 12:56:56;;;;;;;10.30;6.70;;;;;;;29.42;50.72;98853.56;104561;1293;25378;-86
2022/07/23 13:00:08;;;;;;;13.00;6.80;;;;;;;29.57;50.38;98858.31;104287;1294;22626;-88
2022/07/23 13:03:36;;;;;;;;;;;;;;;;;;;;;
2022/07/23 13:06:29;;;;;;;;;;;;;;;;;;;;;
2022/07/23 13:10:11;;;;;;;10.50;7.10;;;;;;;29.57;49.97;98864.51;104353;1294;25525;-87
2022/07/23 13:13:30;;;;;;;10.00;5.90;;;;;;;29.71;49.84;98863.89;104579;1293;22732;-85
2022/07/23 13:16:51;;;;;;;;;;;;;;;;;;;;;
2022/07/23 13:20:07;;;;;;;12.10;6.70;;;;;;;29.27;49.33;98864.00;104852;1290;25575;-87
2022/07/23 13:23:21;;;;;;;;;;;;;;;;;;;;;
2022/07/23 13:26:56;;;;;;;;;;;;;;;;;;;;;
2022/07/23 13:30:37;;;;;;;;;;;;;;;;;;;;;
2022/07/23 13:34:32;;;;;;;;;;;;;;;;;;;;;
2022/07/23 13:41:20;;;;;;;11.90;6.40;;;;;;;29.64;48.39;98867.63;105269;1285;22573;-88
2022/07/23 13:44:48;;;;;;;;;;;;;;;;;;;;;
2022/07/23 13:48:09;;;;;;;12.60;7.40;;;;;;;28.77;47.94;98879.39;105337;1285;22592;-89
2022/07/23 13:51:20;;;;;;;;;;;;;;;;;;;;;
2022/07/23 13:54:05;;;;;;;11.80;7.00;;;;;;;28.15;48.12;98900.23;105324;1285;22563;-88
2022/07/23 13:57:28;;;;;;;;;;;;;;;;;;;;;
2022/07/23 14:01:06;;;;;;;;;;;;;;;;;;;;;
2022/07/23 14:03:48;;;;;;;10.60;7.80;;;;;;;27.34;48.67;98894.73;105760;1279;22532;-87
2022/07/23 14:07:51;;;;;;;12.20;8.20;;;;;;;27.21;48.50;98895.05;105989;1276;24245;-88
2022/07/23 14:10:30;;;;;;;12.30;8.20;;;;;;;27.05;48.54;98897.55;105633;1281;23955;-88
2022/07/23 14:14:31;;;;;;;11.70;7.90;;;;;;;26.90;48.87;98906.30;105692;1281;23932;-89
2022/07/23 14:17:04;;;;;;;11.70;8.40;;;;;;;26.84;48.68;98907.48;105022;1288;22541;-88
2022/07/23 14:20:00;;;;;;;15.00;9.20;;;;;;;26.67;48.76;98898.29;105049;1285;25248;-88
2022/07/23 14:22:49;;;;;;;13.90;9.90;;;;;;;26.57;48.81;98901.12;105088;1286;22559;-88
2022/07/23 14:25:19;;;;;;;12.10;8.40;;;;;;;26.52;48.81;98914.74;105115;1285;23931;-84
2022/07/23 14:27:51;;;;;;;13.40;8.80;;;;;;;26.44;49.04;98933.77;105192;1285;22547;-88
2022/07/23 14:30:40;;;;;;;16.00;9.80;;;;;;;26.31;48.95;98946.67;105116;1285;23309;-87
2022/07/23 14:33:20;;;;;;;12.90;8.80;;;;;;;26.08;49.18;98949.33;105222;1285;24358;-89
2022/07/23 14:35:57;;;;;;;12.60;9.30;;;;;;;25.98;49.42;98940.00;105199;1286;22565;-87
2022/07/23 14:38:30;;;;;;;11.60;8.80;;;;;;;25.96;49.34;98923.38;104800;1286;24436;-88
2022/07/23 14:41:06;;;;;;;13.90;9.40;;;;;;;25.91;49.37;98923.63;105384;1280;22725;-87
2022/07/23 14:43:36;;;;;;;12.70;8.80;;;;;;;25.89;49.16;98932.97;105474;1281;24282;-87
2022/07/23 14:46:14;;;;;;;16.10;9.30;;;;;;;25.87;49.28;98941.60;105704;1281;22644;-86
2022/07/23 14:48:58;;;;;;;13.60;9.00;;;;;;;25.94;49.37;98948.75;105528;1282;22586;-87
2022/07/23 14:51:31;;;;;;;12.90;8.90;;;;;;;26.04;49.56;98937.70;105548;1281;22627;-86
2022/07/23 14:54:04;;;;;;;12.40;8.30;;;;;;;26.08;49.16;98930.00;105988;1274;24237;-88
2022/07/23 14:56:33;;;;;;;13.60;8.50;;;;;;;26.10;49.23;98935.52;106035;1274;22541;-87
2022/07/23 14:59:12;;;;;;;11.50;8.70;;;;;;;26.13;49.36;98935.59;106122;1274;25396;-86
2022/07/23 15:01:46;;;;;;;11.30;8.90;;;;;;;26.20;49.42;98933.27;106032;1276;22614;-87
2022/07/23 15:04:21;;;;;;;15.60;7.80;;;;;;;26.27;49.14;98932.06;106108;1274;24145;-85
2022/07/23 15:07:12;;;;;;;13.60;8.40;;;;;;;26.25;49.20;98931.52;106053;1276;25334;-88
2022/07/23 15:09:50;;;;;;;14.30;8.80;;;;;;;26.22;49.35;98934.07;106099;1276;22556;-87
2022/07/23 15:12:49;;;;;;;12.00;7.60;;;;;;;26.24;49.63;98933.46;106065;1276;24199;-89
2022/07/23 15:15:34;;;;;;;13.30;8.20;;;;;;;26.26;49.74;98940.86;106185;1274;25377;-89
2022/07/23 15:18:21;;;;;;;11.80;8.10;;;;;;;26.22;49.72;98951.91;106039;1277;24224;-88
2022/07/23 15:21:13;;;;;;;;;;;;;;;;;;;;;
2022/07/23 15:24:11;;;;;;;14.40;8.50;;;;;;;25.94;49.61;98961.17;106165;1274;25200;-90
2022/07/23 15:26:48;;;;;;;11.40;7.10;;;;;;;25.80;49.60;98965.13;105970;1276;22721;-88
2022/07/23 15:29:31;;;;;;;10.70;7.10;;;;;;;25.72;49.78;98961.66;106018;1277;22564;-84
2022/07/23 15:32:06;;;;;;;12.20;7.40;;;;;;;25.69;49.77;98956.30;106111;1275;26695;-88
2022/07/23 15:34:47;;;;;;;10.00;7.00;;;;;;;25.66;49.93;98951.89;106030;1276;25440;-87
2022/07/23 15:37:54;;;;;;;11.00;7.70;;;;;;;25.63;49.97;98942.70;106141;1276;22643;-89
2022/07/23 15:40:55;;;;;;;10.80;7.50;;;;;;;25.66;49.94;98942.01;106104;1277;22822;-90
2022/07/23 15:43:33;;;;;;;13.10;7.40;;;;;;;25.81;50.10;98936.27;105966;1277;22622;-93
2022/07/23 15:46:07;;;;;;;11.00;7.00;;;;;;;26.15;50.45;98935.04;106180;1277;22551;-89
2022/07/23 15:48:38;;;;;;;12.70;7.50;;;;;;;26.67;50.04;98927.95;106028;1279;22697;-88
2022/07/23 15:51:24;;;;;;;11.30;7.70;;;;;;;26.99;50.24;98931.80;106324;1275;25438;-89